Aviation Digital Data Service (ADDS)

Output produced by METARs form (1004 UTC 01 September 2015)
found at http://www.aviationweather.gov/adds/metars/
 
KBOS 010815Z 0108/0212 31006KT P6SM FEW250 
     FM011200 35006KT P6SM FEW250 
     FM011400 09006KT P6SM FEW250 
     FM012200 11008KT P6SM SKC 
     FM020100 17007KT P6SM SKC